Time;durP1;ratioP1;P1;durP2;ratioP2;P2;SDS_P1;SDS_P2;PMS_P1;PMS_P2;Temp;Humidity;BMP_temperature;BMP_pressure;BME280_temperature;BME280_humidity;BME280_pressure;Samples;Min_cycle;Max_cycle;Signal;HPM_P1;HPM_P2
2023/08/11 00:01:38;;;;;;;3.22;2.10;;;11.70;99.90;;;;;;5023983;28;20090;-82
2023/08/11 00:04:04;;;;;;;3.70;2.30;;;11.70;99.90;;;;;;5026559;28;20056;-81
2023/08/11 00:06:30;;;;;;;2.53;1.90;;;11.70;99.90;;;;;;5025851;28;20026;-81
2023/08/11 00:08:56;;;;;;;2.75;1.90;;;11.60;99.90;;;;;;5025650;28;20385;-80
2023/08/11 00:11:22;;;;;;;3.22;1.98;;;11.60;99.90;;;;;;5025780;28;20037;-80
2023/08/11 00:13:48;;;;;;;2.97;2.38;;;11.60;99.90;;;;;;5011811;28;20021;-81
2023/08/11 00:16:14;;;;;;;2.50;1.83;;;11.60;99.90;;;;;;5037398;28;20037;-79
2023/08/11 00:18:42;;;;;;;2.78;1.98;;;11.60;99.90;;;;;;5041908;28;20014;-80
2023/08/11 00:21:08;;;;;;;6.05;2.47;;;11.60;99.90;;;;;;5035703;28;20558;-82
2023/08/11 00:23:35;;;;;;;3.50;2.28;;;11.50;99.90;;;;;;5025972;28;20037;-82
2023/08/11 00:26:01;;;;;;;4.60;2.20;;;11.50;99.90;;;;;;5015608;28;20026;-84
2023/08/11 00:28:27;;;;;;;1.95;1.83;;;11.50;99.90;;;;;;5027196;28;20026;-84
2023/08/11 00:30:54;;;;;;;4.43;2.40;;;11.50;99.90;;;;;;5019679;28;20037;-84
2023/08/11 00:33:20;;;;;;;3.47;2.45;;;11.50;99.90;;;;;;5026674;28;20093;-84
2023/08/11 00:35:45;;;;;;;4.07;2.13;;;11.50;99.90;;;;;;5023084;28;20476;-84
2023/08/11 00:38:11;;;;;;;3.40;2.10;;;11.40;99.90;;;;;;5026412;28;20025;-84
2023/08/11 00:40:36;;;;;;;2.42;2.08;;;11.50;99.90;;;;;;5025054;28;20029;-84
2023/08/11 00:43:02;;;;;;;2.72;2.13;;;11.40;99.90;;;;;;5018741;28;20028;-83
2023/08/11 00:45:29;;;;;;;2.85;1.63;;;11.40;99.90;;;;;;5026508;28;20500;-84
2023/08/11 00:47:56;;;;;;;3.42;2.20;;;11.40;99.90;;;;;;5024517;28;20025;-84
2023/08/11 00:50:22;;;;;;;4.13;1.90;;;11.40;99.90;;;;;;5024974;28;20026;-84
2023/08/11 00:52:49;;;;;;;3.45;2.35;;;11.40;99.90;;;;;;5020039;28;20493;-84
2023/08/11 00:55:18;;;;;;;2.70;2.30;;;11.40;99.90;;;;;;5018383;28;20033;-84
2023/08/11 00:57:45;;;;;;;5.47;2.15;;;11.30;99.90;;;;;;5020299;28;20037;-84
2023/08/11 01:00:12;;;;;;;3.70;2.40;;;11.30;99.90;;;;;;5023292;28;20350;-83
2023/08/11 01:02:42;;;;;;;3.42;2.13;;;11.40;99.90;;;;;;5019675;28;20021;-83
2023/08/11 01:05:09;;;;;;;3.47;2.33;;;11.30;99.90;;;;;;5011709;28;20040;-83
2023/08/11 01:07:55;;;;;;;5.20;2.20;;;11.30;99.90;;;;;;5026309;28;20406;-83
2023/08/11 01:10:37;;;;;;;4.45;2.20;;;11.40;99.90;;;;;;5016953;28;20026;-84
2023/08/11 01:13:18;;;;;;;2.45;1.98;;;11.30;99.90;;;;;;5014605;28;20032;-84
2023/08/11 01:15:58;;;;;;;3.03;2.60;;;11.30;99.90;;;;;;5022174;28;20088;-82
2023/08/11 01:18:24;;;;;;;2.13;1.80;;;11.30;99.90;;;;;;5023135;28;20386;-81
2023/08/11 01:20:58;;;;;;;4.85;2.60;;;11.30;99.90;;;;;;5010049;28;20477;-81
2023/08/11 01:23:24;;;;;;;2.20;1.77;;;11.30;99.90;;;;;;5021380;28;20038;-84
2023/08/11 01:25:51;;;;;;;4.05;2.10;;;11.30;99.90;;;;;;5019704;28;20025;-83
2023/08/11 01:28:17;;;;;;;3.13;2.28;;;11.20;99.90;;;;;;5022935;28;20052;-84
2023/08/11 01:30:43;;;;;;;6.00;3.00;;;11.20;99.90;;;;;;5021794;28;20125;-84
2023/08/11 01:33:08;;;;;;;7.28;2.17;;;11.20;99.90;;;;;;5022962;28;20032;-82
2023/08/11 01:35:34;;;;;;;5.22;2.17;;;11.20;99.90;;;;;;5019236;28;20026;-81
2023/08/11 01:37:59;;;;;;;2.28;2.05;;;11.20;99.90;;;;;;5023499;28;20290;-82
2023/08/11 01:40:26;;;;;;;3.88;2.00;;;11.20;99.90;;;;;;5022914;28;20053;-83
2023/08/11 01:42:54;;;;;;;3.65;2.03;;;11.20;99.90;;;;;;5022270;28;20053;-82
2023/08/11 01:45:21;;;;;;;2.63;2.03;;;11.20;99.90;;;;;;5023129;28;20032;-83
2023/08/11 01:47:47;;;;;;;2.97;2.47;;;11.20;99.90;;;;;;5022502;28;20469;-83
2023/08/11 01:50:14;;;;;;;2.20;1.85;;;11.10;99.90;;;;;;5022189;28;20045;-83
2023/08/11 01:52:42;;;;;;;3.72;2.15;;;11.20;99.90;;;;;;5013496;28;20018;-82
2023/08/11 01:55:10;;;;;;;3.35;1.85;;;11.20;99.90;;;;;;5019905;28;20041;-82
2023/08/11 01:57:36;;;;;;;3.10;1.83;;;11.20;99.90;;;;;;5021308;28;20030;-83
2023/08/11 02:00:07;;;;;;;2.80;2.10;;;11.20;99.90;;;;;;5021117;28;20412;-83
2023/08/11 02:02:33;;;;;;;4.38;2.40;;;11.30;99.90;;;;;;5022335;28;20477;-83
2023/08/11 02:04:58;;;;;;;2.63;2.42;;;11.30;99.90;;;;;;5018201;28;20083;-82
2023/08/11 02:07:24;;;;;;;3.88;2.00;;;11.30;99.90;;;;;;5021751;28;20128;-83
2023/08/11 02:09:54;;;;;;;3.47;2.78;;;11.40;99.90;;;;;;5018312;28;20049;-82
2023/08/11 02:12:20;;;;;;;2.55;2.00;;;11.40;99.90;;;;;;5022091;28;20060;-83
2023/08/11 02:14:46;;;;;;;3.92;1.90;;;11.50;99.90;;;;;;5020329;28;20026;-83
2023/08/11 02:17:11;;;;;;;3.72;2.55;;;11.50;99.90;;;;;;5021513;28;20028;-83
2023/08/11 02:19:37;;;;;;;2.67;2.05;;;11.50;99.90;;;;;;5021377;28;20032;-83
2023/08/11 02:22:03;;;;;;;2.65;2.15;;;11.60;99.90;;;;;;5021617;28;20106;-82
2023/08/11 02:24:29;;;;;;;2.85;1.90;;;11.60;99.90;;;;;;5020615;28;20061;-83
2023/08/11 02:26:55;;;;;;;5.47;2.78;;;11.60;99.90;;;;;;5020608;28;20650;-81
2023/08/11 02:29:20;;;;;;;3.20;2.50;;;11.60;99.90;;;;;;5021284;28;20032;-80
2023/08/11 02:31:47;;;;;;;3.05;2.60;;;11.70;99.90;;;;;;5018719;28;20030;-81
2023/08/11 02:34:12;;;;;;;4.30;2.22;;;11.70;99.90;;;;;;5016783;28;20022;-83
2023/08/11 02:36:38;;;;;;;4.07;2.17;;;11.70;99.90;;;;;;5023052;28;20036;-82
2023/08/11 02:39:07;;;;;;;5.75;2.00;;;11.80;99.90;;;;;;5017712;28;20025;-83
2023/08/11 02:41:33;;;;;;;2.47;2.25;;;11.80;99.90;;;;;;5025218;28;20025;-83
2023/08/11 02:43:59;;;;;;;3.15;2.30;;;11.80;99.90;;;;;;5017892;28;20084;-81
2023/08/11 02:46:24;;;;;;;3.67;2.22;;;11.80;99.90;;;;;;5026505;28;20025;-81
2023/08/11 02:48:50;;;;;;;2.97;2.38;;;11.90;99.90;;;;;;5016904;28;20022;-82
2023/08/11 02:51:15;;;;;;;3.90;2.55;;;11.90;99.90;;;;;;5016567;28;20030;-83
2023/08/11 02:53:41;;;;;;;5.05;2.88;;;11.90;99.90;;;;;;5024645;28;20026;-82
2023/08/11 02:56:09;;;;;;;4.57;2.30;;;11.90;99.90;;;;;;5020511;28;20082;-81
2023/08/11 02:58:35;;;;;;;4.35;2.35;;;12.00;99.90;;;;;;5048965;28;20046;-82
2023/08/11 03:01:01;;;;;;;6.45;2.63;;;12.00;99.90;;;;;;5041347;28;20046;-79
2023/08/11 03:03:27;;;;;;;4.05;2.40;;;12.00;99.90;;;;;;5033582;28;20069;-82
2023/08/11 03:05:52;;;;;;;5.75;2.55;;;12.00;99.90;;;;;;5021185;28;20030;-84
2023/08/11 03:08:18;;;;;;;2.10;1.80;;;12.10;99.90;;;;;;5023166;28;20438;-84
2023/08/11 03:10:43;;;;;;;3.40;2.08;;;12.10;99.90;;;;;;5030747;28;20029;-84
2023/08/11 03:13:09;;;;;;;3.88;2.22;;;12.10;99.90;;;;;;5023113;28;20030;-83
2023/08/11 03:15:34;;;;;;;4.68;2.65;;;12.10;99.90;;;;;;5030735;28;20543;-85
2023/08/11 03:18:00;;;;;;;2.53;2.03;;;12.20;99.90;;;;;;5021380;28;20493;-83
2023/08/11 03:20:25;;;;;;;3.47;2.50;;;12.20;99.90;;;;;;5027082;28;20555;-83
2023/08/11 03:22:51;;;;;;;3.15;2.40;;;12.20;99.90;;;;;;5017890;28;20113;-82
2023/08/11 03:25:17;;;;;;;3.15;2.53;;;12.30;99.90;;;;;;5018660;28;20025;-84
2023/08/11 03:27:43;;;;;;;5.43;2.28;;;12.30;99.90;;;;;;5013617;28;20026;-83
2023/08/11 03:30:12;;;;;;;4.10;2.75;;;12.30;99.90;;;;;;5018590;28;20060;-82
2023/08/11 03:32:38;;;;;;;5.10;3.08;;;12.30;99.90;;;;;;5020154;28;20022;-83
2023/08/11 03:35:05;;;;;;;5.18;2.40;;;12.40;99.90;;;;;;5022243;28;20030;-84
2023/08/11 03:37:32;;;;;;;3.10;2.00;;;12.40;99.90;;;;;;5023733;28;20025;-84
2023/08/11 03:39:58;;;;;;;4.10;2.40;;;12.40;99.90;;;;;;5030207;28;20026;-82
2023/08/11 03:42:23;;;;;;;3.20;2.90;;;12.40;99.90;;;;;;5025539;28;20380;-82
2023/08/11 03:44:51;;;;;;;3.90;2.80;;;12.40;99.90;;;;;;5027627;28;20512;-84
2023/08/11 03:47:17;;;;;;;4.05;2.50;;;12.50;99.90;;;;;;5020207;28;20092;-84
2023/08/11 03:49:42;;;;;;;4.50;2.17;;;12.50;99.90;;;;;;5025942;28;20033;-84
2023/08/11 03:52:08;;;;;;;5.38;2.60;;;12.50;99.90;;;;;;5022678;28;20033;-84
2023/08/11 03:54:33;;;;;;;4.97;2.85;;;12.60;99.90;;;;;;5021909;28;20026;-84
2023/08/11 03:56:59;;;;;;;2.72;2.50;;;12.60;99.90;;;;;;5022392;28;20152;-83
2023/08/11 03:59:25;;;;;;;5.40;3.13;;;12.60;99.90;;;;;;5014596;28;20022;-84
2023/08/11 04:01:50;;;;;;;2.80;2.10;;;12.60;99.90;;;;;;5026281;28;20026;-83
2023/08/11 04:04:16;;;;;;;3.53;2.40;;;12.70;99.90;;;;;;5024102;28;20021;-84
2023/08/11 04:06:41;;;;;;;3.08;2.55;;;12.70;99.90;;;;;;5023830;28;20030;-84
2023/08/11 04:09:07;;;;;;;4.50;2.03;;;12.70;99.90;;;;;;5024323;28;20029;-84
2023/08/11 04:11:32;;;;;;;4.35;2.20;;;12.70;99.90;;;;;;5022226;28;20113;-82
2023/08/11 04:13:58;;;;;;;2.45;2.05;;;12.70;99.90;;;;;;5022946;28;20032;-81
2023/08/11 04:16:24;;;;;;;5.32;2.30;;;12.80;99.90;;;;;;5019564;28;20099;-84
2023/08/11 04:18:50;;;;;;;4.75;2.53;;;12.80;99.90;;;;;;5021381;28;20022;-83
2023/08/11 04:21:17;;;;;;;3.53;2.20;;;12.80;99.90;;;;;;5027146;28;20152;-81
2023/08/11 04:23:42;;;;;;;5.93;2.60;;;12.80;99.90;;;;;;5039744;28;20013;-80
2023/08/11 04:26:10;;;;;;;2.45;2.10;;;12.90;99.90;;;;;;5041613;28;20030;-80
2023/08/11 04:28:36;;;;;;;4.45;2.38;;;12.90;99.90;;;;;;5025216;28;20022;-83
2023/08/11 04:31:01;;;;;;;3.17;2.03;;;12.90;99.90;;;;;;5024070;28;20031;-82
2023/08/11 04:33:30;;;;;;;4.25;2.30;;;12.90;99.90;;;;;;5024304;28;20022;-81
2023/08/11 04:35:55;;;;;;;3.42;2.25;;;13.00;99.90;;;;;;5023807;28;20103;-82
2023/08/11 04:38:21;;;;;;;2.75;2.00;;;13.00;99.90;;;;;;5023558;28;20587;-82
2023/08/11 04:40:50;;;;;;;3.58;1.95;;;13.00;99.90;;;;;;5021463;28;20390;-83
2023/08/11 04:43:16;;;;;;;4.47;1.98;;;13.00;99.90;;;;;;5024354;28;20108;-82
2023/08/11 04:45:41;;;;;;;2.55;2.33;;;13.00;99.90;;;;;;5022480;28;20052;-82
2023/08/11 04:48:07;;;;;;;6.07;3.83;;;13.10;99.90;;;;;;5024359;28;20029;-83
2023/08/11 04:50:32;;;;;;;4.60;3.35;;;13.10;99.90;;;;;;5023011;28;20095;-82
2023/08/11 04:52:58;;;;;;;3.80;2.53;;;13.10;99.90;;;;;;5024282;28;20368;-81
2023/08/11 04:55:23;;;;;;;2.85;2.30;;;13.10;99.90;;;;;;5022398;28;20404;-82
2023/08/11 04:57:49;;;;;;;2.65;1.85;;;13.20;99.90;;;;;;5021009;28;20113;-82
2023/08/11 05:00:16;;;;;;;4.78;2.33;;;13.20;99.90;;;;;;5023870;28;20026;-83
2023/08/11 05:02:43;;;;;;;4.38;1.83;;;13.20;99.90;;;;;;5023007;28;20018;-81
2023/08/11 05:05:09;;;;;;;2.20;2.00;;;13.20;99.90;;;;;;5022389;28;20024;-82
2023/08/11 05:07:35;;;;;;;5.28;2.55;;;13.30;99.90;;;;;;5022380;28;20113;-83
2023/08/11 05:10:00;;;;;;;5.47;1.88;;;13.30;99.90;;;;;;5022539;28;20049;-82
2023/08/11 05:12:26;;;;;;;2.95;1.98;;;13.30;99.90;;;;;;5022031;28;20045;-81
2023/08/11 05:14:51;;;;;;;2.25;1.55;;;13.40;99.90;;;;;;5019614;28;20454;-81
2023/08/11 05:17:17;;;;;;;2.42;1.83;;;13.40;99.90;;;;;;5022709;28;20628;-83
2023/08/11 05:19:43;;;;;;;4.43;1.80;;;13.50;99.90;;;;;;5022443;28;20452;-80
2023/08/11 05:22:08;;;;;;;3.05;2.00;;;13.50;99.90;;;;;;5016941;28;20026;-82
2023/08/11 05:24:34;;;;;;;4.20;2.13;;;13.60;99.90;;;;;;5021922;28;20026;-82
2023/08/11 05:26:59;;;;;;;3.17;2.15;;;13.60;99.90;;;;;;5022240;28;20033;-80
2023/08/11 05:29:26;;;;;;;5.82;2.20;;;13.70;99.90;;;;;;5023868;28;20029;-81
2023/08/11 05:31:51;;;;;;;4.32;2.33;;;13.70;99.90;;;;;;5021694;28;20030;-81
2023/08/11 05:34:17;;;;;;;3.72;2.00;;;13.70;99.90;;;;;;5021029;28;20032;-81
2023/08/11 05:36:45;;;;;;;6.13;2.13;;;13.80;99.90;;;;;;5021567;28;20021;-81
2023/08/11 05:39:12;;;;;;;3.40;2.08;;;13.80;99.90;;;;;;5023550;28;20587;-82
2023/08/11 05:41:38;;;;;;;4.70;1.95;;;13.90;99.90;;;;;;5020176;28;20030;-83
2023/08/11 05:44:04;;;;;;;4.63;2.00;;;13.90;99.90;;;;;;5021040;28;20037;-83
2023/08/11 05:46:31;;;;;;;5.05;2.35;;;13.90;99.90;;;;;;5020281;28;20504;-81
2023/08/11 05:48:56;;;;;;;2.78;2.30;;;14.00;99.90;;;;;;5020397;28;20116;-82
2023/08/11 05:51:22;;;;;;;2.20;2.00;;;14.00;99.90;;;;;;5014788;28;20061;-83
2023/08/11 05:53:47;;;;;;;3.55;1.77;;;14.00;99.90;;;;;;5024413;28;20029;-81
2023/08/11 05:56:13;;;;;;;2.95;1.70;;;14.10;99.90;;;;;;5018777;28;20026;-83
2023/08/11 05:58:39;;;;;;;4.80;2.85;;;14.10;99.90;;;;;;5024622;28;20665;-82
2023/08/11 06:01:04;;;;;;;3.15;1.80;;;14.10;99.90;;;;;;5018892;28;20041;-81
2023/08/11 06:03:30;;;;;;;4.18;2.50;;;14.10;99.90;;;;;;5025995;28;20113;-83
2023/08/11 06:06:00;;;;;;;4.65;2.20;;;14.20;99.90;;;;;;5022395;28;20420;-82
2023/08/11 06:08:27;;;;;;;2.78;2.00;;;14.20;99.90;;;;;;5011404;28;20026;-82
2023/08/11 06:10:54;;;;;;;4.93;2.63;;;14.30;99.90;;;;;;5025337;28;20022;-83
2023/08/11 06:13:19;;;;;;;3.30;2.03;;;14.30;99.90;;;;;;5019759;28;20579;-82
2023/08/11 06:15:45;;;;;;;4.20;1.88;;;14.40;99.90;;;;;;5023894;28;20042;-83
2023/08/11 06:18:11;;;;;;;2.40;2.15;;;14.40;99.90;;;;;;5019093;28;20032;-83
2023/08/11 06:20:37;;;;;;;5.75;2.22;;;14.40;99.90;;;;;;5026101;28;20048;-84
2023/08/11 06:23:03;;;;;;;3.08;2.10;;;14.40;99.90;;;;;;5018284;28;20481;-82
2023/08/11 06:25:29;;;;;;;5.75;2.50;;;14.50;99.90;;;;;;5018279;28;20026;-82
2023/08/11 06:27:54;;;;;;;5.55;2.13;;;14.50;99.90;;;;;;5023258;28;20030;-85
2023/08/11 06:30:20;;;;;;;3.78;2.40;;;14.60;99.90;;;;;;5015690;28;20033;-83
2023/08/11 06:32:45;;;;;;;4.18;2.20;;;14.60;99.90;;;;;;5025889;28;20022;-82
2023/08/11 06:35:11;;;;;;;4.13;2.33;;;14.60;99.90;;;;;;5014714;28;20030;-83
2023/08/11 06:37:36;;;;;;;3.45;2.47;;;14.70;99.90;;;;;;5018855;28;20022;-84
2023/08/11 06:40:03;;;;;;;6.68;2.25;;;14.70;99.90;;;;;;5020827;28;20381;-83
2023/08/11 06:42:28;;;;;;;7.20;2.40;;;14.80;99.90;;;;;;5017976;28;20022;-83
2023/08/11 06:44:54;;;;;;;7.82;2.63;;;14.80;99.90;;;;;;5022333;28;20105;-82
2023/08/11 06:47:19;;;;;;;3.47;2.53;;;14.90;99.90;;;;;;5018918;28;20083;-84
2023/08/11 06:49:45;;;;;;;4.75;2.22;;;14.90;99.90;;;;;;5025237;28;20159;-82
2023/08/11 06:52:11;;;;;;;5.85;2.88;;;15.00;99.90;;;;;;5017629;28;20033;-83
2023/08/11 06:54:38;;;;;;;3.40;2.40;;;15.00;99.90;;;;;;5016324;28;20029;-83
2023/08/11 06:57:04;;;;;;;4.53;2.17;;;15.10;99.90;;;;;;5020354;28;20036;-82
2023/08/11 06:59:30;;;;;;;4.07;2.70;;;15.10;99.90;;;;;;5023670;28;20026;-83
2023/08/11 07:01:55;;;;;;;3.67;2.17;;;15.10;99.90;;;;;;5019126;28;20123;-83
2023/08/11 07:04:21;;;;;;;2.33;2.03;;;15.20;99.90;;;;;;5019457;28;20050;-83
2023/08/11 07:06:47;;;;;;;2.95;2.33;;;15.20;99.90;;;;;;5019559;28;20419;-83
2023/08/11 07:09:12;;;;;;;3.45;2.00;;;15.30;99.90;;;;;;5019879;28;20562;-84
2023/08/11 07:11:38;;;;;;;4.03;2.30;;;15.40;99.90;;;;;;5014177;28;20570;-83
2023/08/11 07:14:04;;;;;;;4.05;2.22;;;15.40;99.90;;;;;;5018282;28;20037;-83
2023/08/11 07:16:30;;;;;;;2.55;1.95;;;15.50;99.90;;;;;;5016500;28;20030;-82
2023/08/11 07:18:56;;;;;;;3.72;2.28;;;15.50;99.90;;;;;;5020867;28;20036;-83
2023/08/11 07:21:21;;;;;;;3.20;2.42;;;15.60;99.90;;;;;;5018637;28;20135;-82
2023/08/11 07:23:49;;;;;;;6.13;2.42;;;15.60;99.90;;;;;;5025660;28;20014;-80
2023/08/11 07:26:15;;;;;;;6.78;2.33;;;15.70;99.90;;;;;;5038926;28;20030;-80
2023/08/11 07:28:41;;;;;;;5.88;2.97;;;15.70;99.90;;;;;;5042723;28;20056;-81
2023/08/11 07:31:06;;;;;;;4.60;2.08;;;15.80;99.90;;;;;;5030790;28;20530;-85
2023/08/11 07:33:32;;;;;;;5.85;2.90;;;15.90;99.90;;;;;;5021514;28;20076;-81
2023/08/11 07:35:57;;;;;;;3.65;2.60;;;16.00;99.90;;;;;;5023967;28;20099;-82
2023/08/11 07:38:23;;;;;;;6.35;2.90;;;16.00;99.90;;;;;;5022975;28;20111;-82
2023/08/11 07:40:49;;;;;;;4.47;2.78;;;16.00;99.90;;;;;;5023085;28;20022;-85
2023/08/11 07:43:14;;;;;;;7.63;3.00;;;16.00;99.90;;;;;;5021417;28;20680;-81
2023/08/11 07:45:40;;;;;;;4.18;2.60;;;16.10;99.90;;;;;;5017846;28;20088;-84
2023/08/11 07:48:06;;;;;;;6.72;2.75;;;16.10;99.90;;;;;;5019268;28;20183;-82
2023/08/11 07:50:35;;;;;;;6.22;2.75;;;16.20;99.90;;;;;;5016576;28;20018;-83
2023/08/11 07:53:01;;;;;;;4.05;2.13;;;16.20;99.90;;;;;;5021081;28;20619;-83
2023/08/11 07:55:27;;;;;;;3.63;2.58;;;16.30;99.90;;;;;;5020647;28;20044;-84
2023/08/11 07:57:52;;;;;;;4.80;2.25;;;16.30;99.90;;;;;;5020987;28;20437;-85
2023/08/11 08:00:20;;;;;;;3.42;2.63;;;16.40;99.90;;;;;;5021535;28;20030;-82
2023/08/11 08:02:46;;;;;;;6.25;2.55;;;16.40;99.90;;;;;;5020626;28;20079;-83
2023/08/11 08:05:12;;;;;;;3.88;2.33;;;16.50;99.90;;;;;;5022363;28;20032;-83
2023/08/11 08:07:38;;;;;;;2.53;2.22;;;16.50;99.90;;;;;;5019958;28;20117;-83
2023/08/11 08:10:11;;;;;;;4.07;2.47;;;16.60;99.90;;;;;;5022738;28;20022;-83
2023/08/11 08:12:38;;;;;;;6.15;3.20;;;16.70;99.90;;;;;;5020167;28;20075;-84
2023/08/11 08:15:05;;;;;;;5.10;2.85;;;16.80;99.90;;;;;;5024766;28;20087;-84
2023/08/11 08:17:31;;;;;;;4.43;2.97;;;16.80;99.90;;;;;;5023173;28;20032;-84
2023/08/11 08:19:57;;;;;;;3.22;2.53;;;16.90;99.90;;;;;;5025113;28;20029;-83
2023/08/11 08:22:23;;;;;;;3.90;2.53;;;17.00;99.90;;;;;;5024050;28;20097;-82
2023/08/11 08:24:49;;;;;;;5.03;2.55;;;17.00;99.90;;;;;;5018540;28;20145;-83
2023/08/11 08:27:17;;;;;;;4.97;2.55;;;17.10;99.90;;;;;;5025927;28;20163;-82
2023/08/11 08:29:42;;;;;;;5.07;2.95;;;17.20;99.90;;;;;;5021203;28;20090;-83
2023/08/11 08:32:08;;;;;;;6.18;3.50;;;17.30;99.90;;;;;;5022191;28;20108;-84
2023/08/11 08:34:34;;;;;;;5.40;3.25;;;17.30;99.90;;;;;;5023047;28;20029;-84
2023/08/11 08:36:59;;;;;;;3.70;2.80;;;17.40;99.90;;;;;;5025259;28;20025;-84
2023/08/11 08:39:26;;;;;;;6.00;2.47;;;17.50;99.90;;;;;;5030298;28;20021;-84
2023/08/11 08:41:53;;;;;;;4.40;2.63;;;17.60;99.90;;;;;;5020551;28;20089;-84
2023/08/11 08:44:20;;;;;;;3.45;3.15;;;17.70;99.90;;;;;;5025122;28;20021;-84
2023/08/11 08:46:47;;;;;;;3.42;3.13;;;17.80;99.90;;;;;;5022092;28;20100;-84
2023/08/11 08:49:27;;;;;;;3.60;2.80;;;17.90;99.90;;;;;;5025482;28;20030;-83
2023/08/11 08:51:54;;;;;;;3.67;3.35;;;18.00;99.90;;;;;;5006444;28;20049;-84
2023/08/11 08:54:20;;;;;;;3.80;3.13;;;18.10;99.90;;;;;;5021551;28;20176;-84
2023/08/11 08:56:45;;;;;;;8.10;3.67;;;18.10;99.90;;;;;;5017751;28;20021;-82
2023/08/11 08:59:11;;;;;;;2.95;2.72;;;18.20;99.90;;;;;;5024847;28;20181;-84
2023/08/11 09:01:38;;;;;;;4.05;3.63;;;18.20;99.90;;;;;;5024608;28;20454;-84
2023/08/11 09:04:06;;;;;;;6.20;3.28;;;18.30;99.90;;;;;;5025638;28;20022;-82
2023/08/11 09:06:33;;;;;;;6.20;2.67;;;18.30;99.90;;;;;;5021947;28;20026;-82
2023/08/11 09:09:01;;;;;;;3.97;3.13;;;18.40;99.90;;;;;;5018088;28;20534;-83
2023/08/11 09:11:27;;;;;;;5.45;4.03;;;18.40;99.90;;;;;;5023910;28;20113;-83
2023/08/11 09:13:52;;;;;;;5.28;3.30;;;18.40;99.90;;;;;;5021181;28;20118;-84
2023/08/11 09:16:23;;;;;;;3.28;3.03;;;18.40;99.90;;;;;;5020690;28;20026;-84
2023/08/11 09:18:49;;;;;;;6.25;3.38;;;18.60;99.90;;;;;;5024982;28;20490;-84
2023/08/11 09:21:15;;;;;;;5.60;3.50;;;18.60;99.90;;;;;;5024567;28;20037;-84
2023/08/11 09:23:43;;;;;;;5.53;3.75;;;18.70;99.90;;;;;;5022614;28;20030;-82
2023/08/11 09:26:09;;;;;;;4.50;3.33;;;18.80;99.90;;;;;;5023410;28;20041;-84
2023/08/11 09:28:35;;;;;;;4.28;2.83;;;18.80;99.90;;;;;;5022162;28;20029;-82
2023/08/11 09:31:00;;;;;;;6.85;3.72;;;18.90;99.90;;;;;;5024454;28;20106;-82
2023/08/11 09:33:26;;;;;;;3.50;3.20;;;19.00;99.90;;;;;;5022371;28;20046;-83
2023/08/11 09:35:53;;;;;;;4.47;3.22;;;19.00;99.90;;;;;;5021104;28;20064;-84
2023/08/11 09:38:19;;;;;;;6.25;3.47;;;19.10;99.90;;;;;;5022405;28;20647;-83
2023/08/11 09:40:50;;;;;;;3.50;3.03;;;19.20;99.90;;;;;;5021922;28;20045;-82
2023/08/11 09:43:16;;;;;;;3.35;2.97;;;19.20;99.90;;;;;;5020719;28;20330;-83
2023/08/11 09:45:41;;;;;;;4.97;3.47;;;19.30;99.90;;;;;;5021247;28;20024;-84
2023/08/11 09:48:08;;;;;;;7.25;3.47;;;19.40;99.90;;;;;;5020868;28;20025;-83
2023/08/11 09:50:35;;;;;;;2.50;2.22;;;19.40;99.90;;;;;;5016744;28;20444;-85
2023/08/11 09:53:04;;;;;;;5.30;2.50;;;19.50;99.90;;;;;;5023314;28;20025;-82
2023/08/11 09:55:32;;;;;;;4.40;3.42;;;19.50;99.90;;;;;;5018657;28;20025;-83
2023/08/11 09:58:01;;;;;;;3.67;3.38;;;19.60;99.90;;;;;;5020916;28;20147;-82
2023/08/11 10:00:27;;;;;;;4.35;2.83;;;19.70;99.90;;;;;;5023837;28;20029;-82
2023/08/11 10:03:01;;;;;;;4.35;2.45;;;19.80;99.90;;;;;;5022068;28;20036;-83
2023/08/11 10:05:29;;;;;;;4.80;2.83;;;19.90;99.90;;;;;;5019115;28;20049;-83
2023/08/11 10:07:57;;;;;;;3.80;2.40;;;19.90;99.90;;;;;;5011424;28;20026;-84
2023/08/11 10:10:23;;;;;;;2.95;2.42;;;20.00;99.90;;;;;;5010439;28;20029;-83
2023/08/11 10:12:58;;;;;;;2.45;2.22;;;20.00;99.90;;;;;;5022692;28;20025;-84
2023/08/11 10:15:26;;;;;;;2.50;2.30;;;20.10;99.90;;;;;;5015755;28;20030;-81
2023/08/11 10:17:52;;;;;;;3.60;2.40;;;20.20;99.90;;;;;;5019261;28;20973;-84
2023/08/11 10:20:18;;;;;;;3.75;2.72;;;20.20;99.90;;;;;;5025772;28;20101;-84
2023/08/11 10:22:44;;;;;;;3.97;2.70;;;20.40;99.90;;;;;;5021146;28;20049;-83
2023/08/11 10:25:11;;;;;;;3.78;2.75;;;20.40;99.90;;;;;;5014357;28;20517;-83
2023/08/11 10:27:38;;;;;;;5.20;2.60;;;20.50;99.90;;;;;;5009590;28;20036;-83
2023/08/11 10:30:07;;;;;;;2.75;2.47;;;20.60;99.90;;;;;;5010131;28;20088;-82
2023/08/11 10:32:33;;;;;;;4.22;2.53;;;20.70;99.90;;;;;;5026932;28;20033;-81
2023/08/11 10:34:59;;;;;;;3.00;2.63;;;20.80;99.90;;;;;;5015790;28;20022;-81
2023/08/11 10:37:34;;;;;;;4.32;2.75;;;20.90;99.90;;;;;;5024353;28;20147;-82
2023/08/11 10:40:09;;;;;;;3.43;2.87;;;21.00;99.90;;;;;;5019821;28;20017;-82
2023/08/11 10:42:41;;;;;;;3.33;2.78;;;21.10;99.90;;;;;;5019657;28;20088;-83
2023/08/11 10:45:11;;;;;;;5.85;3.60;;;21.30;99.90;;;;;;5021445;28;20113;-84
2023/08/11 10:47:53;;;;;;;3.10;2.80;;;21.40;99.90;;;;;;5018547;28;20060;-84
2023/08/11 10:50:21;;;;;;;6.35;3.50;;;21.50;99.90;;;;;;5021805;28;20026;-83
2023/08/11 10:52:47;;;;;;;2.83;2.60;;;21.60;99.90;;;;;;5023603;28;20037;-84
2023/08/11 10:55:16;;;;;;;3.05;2.55;;;21.70;99.90;;;;;;5026116;28;20060;-83
2023/08/11 10:57:42;;;;;;;3.40;2.97;;;21.70;99.90;;;;;;5019417;28;20025;-84
2023/08/11 11:00:10;;;;;;;3.03;2.80;;;21.90;99.90;;;;;;5021087;28;20029;-83
2023/08/11 11:02:35;;;;;;;9.60;2.95;;;22.00;99.90;;;;;;5023263;28;20025;-82
2023/08/11 11:05:01;;;;;;;3.92;2.08;;;22.10;99.90;;;;;;5021293;28;20017;-85
2023/08/11 11:07:38;;;;;;;2.33;2.13;;;22.20;99.90;;;;;;5021403;28;20033;-82
2023/08/11 11:10:04;;;;;;;2.40;2.20;;;22.30;99.90;;;;;;5022195;28;20036;-83
2023/08/11 11:12:31;;;;;;;2.80;2.10;;;22.30;99.90;;;;;;5022748;28;20483;-83
2023/08/11 11:14:56;;;;;;;2.55;1.88;;;22.40;99.90;;;;;;5020937;28;20105;-81
2023/08/11 11:17:45;;;;;;;2.40;2.15;;;22.50;99.90;;;;;;5021805;28;20484;-82
2023/08/11 11:20:13;;;;;;;2.10;2.00;;;22.60;99.90;;;;;;5014361;28;20037;-83
2023/08/11 11:22:47;;;;;;;3.70;1.98;;;22.60;99.90;;;;;;5021451;28;20021;-84
2023/08/11 11:25:19;;;;;;;2.80;2.15;;;22.70;99.90;;;;;;5011745;28;20107;-83
2023/08/11 11:27:45;;;;;;;2.42;1.50;;;22.70;99.90;;;;;;5026013;28;20091;-83
2023/08/11 11:30:11;;;;;;;1.95;1.73;;;22.70;99.90;;;;;;5018001;28;20038;-83
2023/08/11 11:32:38;;;;;;;2.00;1.80;;;22.70;99.90;;;;;;5024750;28;20522;-84
2023/08/11 11:35:07;;;;;;;1.85;1.52;;;22.70;99.90;;;;;;5010979;28;20022;-82
2023/08/11 11:37:34;;;;;;;2.17;1.27;;;22.60;99.90;;;;;;5025299;28;20132;-81
2023/08/11 11:40:18;;;;;;;1.73;1.50;;;22.60;99.90;;;;;;5019629;28;20018;-81
2023/08/11 11:42:45;;;;;;;0.98;0.98;;;22.60;99.90;;;;;;5020530;28;20268;-82
2023/08/11 11:45:11;;;;;;;1.50;1.40;;;22.60;99.90;;;;;;5020712;28;20022;-82
2023/08/11 11:47:40;;;;;;;1.30;1.20;;;22.60;99.90;;;;;;5019853;28;20520;-82
2023/08/11 11:50:07;;;;;;;1.45;1.20;;;22.60;99.90;;;;;;5040257;28;20036;-82
2023/08/11 11:52:33;;;;;;;1.60;1.48;;;22.60;99.90;;;;;;5043244;28;20037;-80
2023/08/11 11:55:01;;;;;;;1.77;1.20;;;22.70;99.90;;;;;;5044325;28;20030;-83
2023/08/11 11:57:26;;;;;;;1.73;1.27;;;22.70;99.90;;;;;;5022468;28;20030;-82
2023/08/11 11:59:56;;;;;;;1.58;1.42;;;22.80;99.90;;;;;;5029281;28;20033;-83
2023/08/11 12:02:22;;;;;;;2.70;1.17;;;22.80;99.90;;;;;;5019219;28;20090;-83
2023/08/11 12:04:47;;;;;;;1.30;1.00;;;22.90;99.90;;;;;;5028003;28;20084;-82
2023/08/11 12:07:34;;;;;;;1.15;0.90;;;22.90;99.90;;;;;;5030914;28;20471;-83
2023/08/11 12:09:59;;;;;;;;;;;23.00;99.90;;;;;;5020348;28;20034;-81
2023/08/11 12:12:28;;;;;;;1.20;1.10;;;23.00;99.90;;;;;;5026697;28;20564;-83
2023/08/11 12:15:04;;;;;;;1.55;1.08;;;23.10;99.90;;;;;;5024534;28;20099;-82
2023/08/11 12:17:33;;;;;;;1.23;1.13;;;23.30;99.90;;;;;;5025116;28;20025;-81
2023/08/11 12:20:10;;;;;;;1.50;1.25;;;23.30;99.90;;;;;;5027743;28;20056;-82
2023/08/11 12:22:35;;;;;;;2.03;1.17;;;23.40;99.90;;;;;;5024517;28;20104;-85
2023/08/11 12:25:01;;;;;;;1.25;1.10;;;23.40;99.90;;;;;;5021422;28;20049;-85
2023/08/11 12:27:28;;;;;;;2.30;1.30;;;23.40;99.90;;;;;;5028035;28;20034;-84
2023/08/11 12:29:54;;;;;;;1.40;1.30;;;23.50;99.90;;;;;;5021028;28;20045;-83
2023/08/11 12:32:19;;;;;;;1.10;1.10;;;23.60;99.90;;;;;;5029518;28;20041;-84
2023/08/11 12:34:45;;;;;;;4.07;1.30;;;23.60;99.90;;;;;;5020695;28;20640;-84
2023/08/11 12:37:13;;;;;;;1.38;1.27;;;23.70;99.90;;;;;;5027414;28;20481;-82
2023/08/11 12:39:38;;;;;;;1.33;1.23;;;23.70;99.90;;;;;;5020600;28;20080;-82
2023/08/11 12:42:04;;;;;;;1.45;1.35;;;23.70;99.90;;;;;;5011547;28;20029;-85
2023/08/11 12:44:29;;;;;;;2.60;1.20;;;23.70;99.90;;;;;;5018754;28;20021;-84
2023/08/11 12:46:55;;;;;;;1.50;1.30;;;23.60;99.90;;;;;;5021948;28;20033;-83